CheckWX is a tool to help pilots better visualize weather data.  It is not intended as a substitute for an official pre-flight weather briefing.

21:50:29 UTC

DABT METAR
Batna Airport
Batna, Algeria
Current

50 mins ago

DABT 232100Z 05008KT 9999 FEW020 16/08 Q1018
Observed
May-23 @ 21:00 UTC
Wind
  • 050° at 8 KTS
Visibility
10,000+ meters
Flight Rules
VFR
Cloud Levels
  • Few at 2,000' AGL
Temperature
16°C / 61°F
Dewpoint
C / 46°F
Humidity
59%
Altimeter
30.06" Hg
Pressure
1017.92 hPa
Previous

2 hours ago

DABT 232000Z 17002KT 9999 FEW020 18/07 Q1018
Observed
May-23 @ 20:00 UTC
Wind
  • 170° at 2 KTS
Visibility
10,000+ meters
Flight Rules
VFR
Cloud Levels
  • Few at 2,000' AGL
Temperature
18°C / 64°F
Dewpoint
C / 45°F
Humidity
49%
Altimeter
30.06" Hg
Pressure
1017.92 hPa
Previous

3 hours ago

DABT 231900Z 18004KT 9999 SCT020 20/07 Q1018
Observed
May-23 @ 19:00 UTC
Wind
  • 180° at 4 KTS
Visibility
10,000+ meters
Flight Rules
VFR
Cloud Levels
  • Scattered at 2,000' AGL
Temperature
20°C / 68°F
Dewpoint
C / 45°F
Humidity
43%
Altimeter
30.06" Hg
Pressure
1017.92 hPa